Time;durP1;ratioP1;P1;durP2;ratioP2;P2;SDS_P1;SDS_P2;PMS_P1;PMS_P2;Temp;Humidity;BMP_temperature;BMP_pressure;BME280_temperature;BME280_humidity;BME280_pressure;Samples;Min_cycle;Max_cycle;Signal;HPM_P1;HPM_P2
2023/08/20 00:01:25;;;;;;;15.93;6.82;;;;;;;;;;5050984;28;20037;-66
2023/08/20 00:03:51;;;;;;;9.13;8.23;;;;;;;;;;5051863;28;20024;-67
2023/08/20 00:06:16;;;;;;;9.30;7.43;;;;;;;;;;5050687;28;20044;-65
2023/08/20 00:08:41;;;;;;;13.10;9.48;;;;;;;;;;5052366;28;20021;-68
2023/08/20 00:11:07;;;;;;;17.73;10.15;;;;;;;;;;5050553;28;20060;-65
2023/08/20 00:13:32;;;;;;;13.07;4.53;;;;;;;;;;5051899;28;20423;-66
2023/08/20 00:15:57;;;;;;;5.13;3.10;;;;;;;;;;5049353;28;20029;-66
2023/08/20 00:18:22;;;;;;;6.75;4.43;;;;;;;;;;5050603;28;20075;-66
2023/08/20 00:20:48;;;;;;;10.52;6.03;;;;;;;;;;5050443;28;20381;-66
2023/08/20 00:23:13;;;;;;;8.60;4.80;;;;;;;;;;5052392;28;20109;-66
2023/08/20 00:25:38;;;;;;;3.90;3.60;;;;;;;;;;5049815;28;20472;-66
2023/08/20 00:28:04;;;;;;;3.75;3.42;;;;;;;;;;5051956;28;20036;-66
2023/08/20 00:30:29;;;;;;;6.13;5.28;;;;;;;;;;5050367;28;20021;-65
2023/08/20 00:32:54;;;;;;;6.27;5.67;;;;;;;;;;5051444;28;20013;-66
2023/08/20 00:35:19;;;;;;;7.22;5.45;;;;;;;;;;5051539;28;20013;-67
2023/08/20 00:37:44;;;;;;;9.67;5.63;;;;;;;;;;5050408;28;20026;-66
2023/08/20 00:40:10;;;;;;;8.20;4.55;;;;;;;;;;5051417;28;20424;-66
2023/08/20 00:42:36;;;;;;;6.50;5.90;;;;;;;;;;5049831;28;20033;-66
2023/08/20 00:45:02;;;;;;;15.63;7.75;;;;;;;;;;5051538;28;20146;-66
2023/08/20 00:47:27;;;;;;;10.65;7.38;;;;;;;;;;5049275;28;20642;-66
2023/08/20 00:49:52;;;;;;;10.70;7.53;;;;;;;;;;5051748;28;20043;-67
2023/08/20 00:52:18;;;;;;;7.97;7.17;;;;;;;;;;5049676;28;20033;-66
2023/08/20 00:54:47;;;;;;;15.35;5.47;;;;;;;;;;5051277;28;20021;-67
2023/08/20 00:57:17;;;;;;;13.25;7.20;;;;;;;;;;5049749;28;20037;-67
2023/08/20 00:59:43;;;;;;;8.88;7.25;;;;;;;;;;5051809;28;20367;-67
2023/08/20 01:02:08;;;;;;;10.30;7.60;;;;;;;;;;5049854;28;20080;-66
2023/08/20 01:04:33;;;;;;;9.50;7.90;;;;;;;;;;5050654;28;20424;-67
2023/08/20 01:06:58;;;;;;;8.32;6.82;;;;;;;;;;5049641;28;20044;-67
2023/08/20 01:09:42;;;;;;;9.05;8.13;;;;;;;;;;5050868;28;20480;-67
2023/08/20 01:12:08;;;;;;;9.65;7.28;;;;;;;;;;5049462;28;20041;-66
2023/08/20 01:14:34;;;;;;;9.15;6.47;;;;;;;;;;5050675;28;20140;-74
2023/08/20 01:16:59;;;;;;;8.60;7.60;;;;;;;;;;5049355;28;20456;-67
2023/08/20 01:19:24;;;;;;;9.53;7.63;;;;;;;;;;5050241;28;20044;-67
2023/08/20 01:22:13;;;;;;;7.47;6.63;;;;;;;;;;5049339;28;20527;-66
2023/08/20 01:25:03;;;;;;;9.52;8.55;;;;;;;;;;5050189;28;20490;-67
2023/08/20 01:27:48;;;;;;;10.00;7.57;;;;;;;;;;5047439;28;20427;-66
2023/08/20 01:30:14;;;;;;;10.23;7.65;;;;;;;;;;5050550;28;20024;-74
2023/08/20 01:32:41;;;;;;;8.88;6.03;;;;;;;;;;5048586;28;20037;-66
2023/08/20 01:35:08;;;;;;;23.55;6.35;;;;;;;;;;5050477;28;20013;-69
2023/08/20 01:37:33;;;;;;;12.00;5.65;;;;;;;;;;5049031;28;20044;-66
2023/08/20 01:39:58;;;;;;;9.43;5.93;;;;;;;;;;5050261;28;20016;-66
2023/08/20 01:42:23;;;;;;;9.63;5.63;;;;;;;;;;5048481;28;20124;-67
2023/08/20 01:44:48;;;;;;;5.57;5.07;;;;;;;;;;5050585;28;20096;-65
2023/08/20 01:47:14;;;;;;;11.52;7.13;;;;;;;;;;5048620;28;20120;-64
2023/08/20 01:49:39;;;;;;;7.40;5.78;;;;;;;;;;5050428;28;20025;-63
2023/08/20 01:52:04;;;;;;;13.15;6.18;;;;;;;;;;5048895;28;20032;-63
2023/08/20 01:54:30;;;;;;;11.75;5.90;;;;;;;;;;5049713;28;20029;-63
2023/08/20 01:56:55;;;;;;;9.73;5.20;;;;;;;;;;5048873;28;20134;-65
2023/08/20 01:59:21;;;;;;;8.25;7.40;;;;;;;;;;5050305;28;20020;-64
2023/08/20 02:01:46;;;;;;;9.57;7.10;;;;;;;;;;5047324;28;20496;-64
2023/08/20 02:04:11;;;;;;;15.37;9.93;;;;;;;;;;5050479;28;20045;-68
2023/08/20 02:06:37;;;;;;;10.27;7.60;;;;;;;;;;5048544;28;20102;-64
2023/08/20 02:09:03;;;;;;;14.05;9.35;;;;;;;;;;5049523;28;20124;-64
2023/08/20 02:11:29;;;;;;;11.98;9.23;;;;;;;;;;5048758;28;20033;-69
2023/08/20 02:13:54;;;;;;;17.63;9.48;;;;;;;;;;5050304;28;20077;-66
2023/08/20 02:16:19;;;;;;;10.43;8.10;;;;;;;;;;5048321;28;20072;-65
2023/08/20 02:18:45;;;;;;;18.42;10.13;;;;;;;;;;5049986;28;20048;-65
2023/08/20 02:21:10;;;;;;;11.02;9.73;;;;;;;;;;5048726;28;20063;-65
2023/08/20 02:23:35;;;;;;;17.40;10.32;;;;;;;;;;5049642;28;20461;-65
2023/08/20 02:26:00;;;;;;;15.70;11.20;;;;;;;;;;5048651;28;20029;-65
2023/08/20 02:28:25;;;;;;;13.25;9.75;;;;;;;;;;5050095;28;20037;-65
2023/08/20 02:30:51;;;;;;;13.35;10.25;;;;;;;;;;5048664;28;20464;-65
2023/08/20 02:33:16;;;;;;;14.97;9.90;;;;;;;;;;5049405;28;20036;-65
2023/08/20 02:35:41;;;;;;;10.88;7.93;;;;;;;;;;5048685;28;20023;-65
2023/08/20 02:38:08;;;;;;;13.68;7.93;;;;;;;;;;5050243;28;20013;-64
2023/08/20 02:40:38;;;;;;;9.95;6.75;;;;;;;;;;5048395;28;20040;-63
2023/08/20 02:43:03;;;;;;;8.07;6.82;;;;;;;;;;5051851;28;20086;-63
2023/08/20 02:45:29;;;;;;;11.80;6.53;;;;;;;;;;5053701;28;20048;-64
2023/08/20 02:47:54;;;;;;;15.33;8.20;;;;;;;;;;5051920;28;20029;-65
2023/08/20 02:50:19;;;;;;;13.68;7.63;;;;;;;;;;5053587;28;20462;-64
2023/08/20 02:52:45;;;;;;;19.63;8.07;;;;;;;;;;5052047;28;20036;-65
2023/08/20 02:55:10;;;;;;;15.70;7.32;;;;;;;;;;5053304;28;20483;-65
2023/08/20 02:57:35;;;;;;;19.52;9.93;;;;;;;;;;5051861;28;20033;-65
2023/08/20 03:00:00;;;;;;;8.90;6.77;;;;;;;;;;5053458;28;20049;-66
2023/08/20 03:02:25;;;;;;;12.73;10.10;;;;;;;;;;5050965;28;20542;-65
2023/08/20 03:04:51;;;;;;;10.97;9.07;;;;;;;;;;5053604;28;20413;-65
2023/08/20 03:07:16;;;;;;;17.25;9.13;;;;;;;;;;5051425;28;20072;-66
2023/08/20 03:09:41;;;;;;;15.27;8.53;;;;;;;;;;5053121;28;20423;-64
2023/08/20 03:12:06;;;;;;;21.83;10.00;;;;;;;;;;5052160;28;20037;-63
2023/08/20 03:14:32;;;;;;;12.85;8.85;;;;;;;;;;5052862;28;20472;-63
2023/08/20 03:16:57;;;;;;;9.47;8.57;;;;;;;;;;5051590;28;20025;-64
2023/08/20 03:19:22;;;;;;;10.13;8.37;;;;;;;;;;5052947;28;20041;-64
2023/08/20 03:21:47;;;;;;;10.77;7.87;;;;;;;;;;5050422;28;20037;-65
2023/08/20 03:24:12;;;;;;;12.70;8.80;;;;;;;;;;5052815;28;20474;-67
2023/08/20 03:26:37;;;;;;;15.13;9.30;;;;;;;;;;5051386;28;20037;-64
2023/08/20 03:29:03;;;;;;;13.98;9.95;;;;;;;;;;5053246;28;20029;-64
2023/08/20 03:31:28;;;;;;;15.25;9.80;;;;;;;;;;5050719;28;20098;-65
2023/08/20 03:33:53;;;;;;;17.77;9.67;;;;;;;;;;5068250;28;20122;-64
2023/08/20 03:36:18;;;;;;;18.23;8.63;;;;;;;;;;5051101;28;20527;-64
2023/08/20 03:38:43;;;;;;;17.50;10.23;;;;;;;;;;5052776;28;20048;-65
2023/08/20 03:41:09;;;;;;;13.47;9.03;;;;;;;;;;5051522;28;20400;-65
2023/08/20 03:43:34;;;;;;;16.60;11.82;;;;;;;;;;5052825;28;20040;-69
2023/08/20 03:45:59;;;;;;;28.43;16.97;;;;;;;;;;5051222;28;20033;-65
2023/08/20 03:48:24;;;;;;;14.35;10.35;;;;;;;;;;5052228;28;20074;-66
2023/08/20 03:50:49;;;;;;;15.03;13.23;;;;;;;;;;5051376;28;20140;-65
2023/08/20 03:53:14;;;;;;;34.77;16.40;;;;;;;;;;5052076;28;20051;-66
2023/08/20 03:55:40;;;;;;;29.23;16.23;;;;;;;;;;5051335;28;20507;-66
2023/08/20 03:58:05;;;;;;;23.85;15.40;;;;;;;;;;5052533;28;20017;-66
2023/08/20 04:00:30;;;;;;;30.93;14.43;;;;;;;;;;5051884;28;20025;-71
2023/08/20 04:02:55;;;;;;;23.07;12.53;;;;;;;;;;5051022;28;20448;-66
2023/08/20 04:05:20;;;;;;;25.45;14.52;;;;;;;;;;5052206;28;20423;-66
2023/08/20 04:07:46;;;;;;;22.70;14.10;;;;;;;;;;5050511;28;20531;-66
2023/08/20 04:10:11;;;;;;;24.55;14.50;;;;;;;;;;5052198;28;20036;-66
2023/08/20 04:12:36;;;;;;;19.38;14.32;;;;;;;;;;5050660;28;20037;-66
2023/08/20 04:15:01;;;;;;;27.80;15.03;;;;;;;;;;5051795;28;20040;-68
2023/08/20 04:17:26;;;;;;;24.70;15.50;;;;;;;;;;5050563;28;20116;-66
2023/08/20 04:19:51;;;;;;;33.55;14.05;;;;;;;;;;5051839;28;20103;-66
2023/08/20 04:22:17;;;;;;;31.60;17.60;;;;;;;;;;5050008;28;20502;-66
2023/08/20 04:24:42;;;;;;;24.13;15.25;;;;;;;;;;5052140;28;20067;-66
2023/08/20 04:27:07;;;;;;;28.23;18.50;;;;;;;;;;5050363;28;20484;-66
2023/08/20 04:29:32;;;;;;;35.17;16.70;;;;;;;;;;5051579;28;20112;-66
2023/08/20 04:31:57;;;;;;;21.60;12.30;;;;;;;;;;5050360;28;20542;-66
2023/08/20 04:34:22;;;;;;;28.27;15.65;;;;;;;;;;5051612;28;20078;-65
2023/08/20 04:36:48;;;;;;;23.50;15.02;;;;;;;;;;5050159;28;20488;-64
2023/08/20 04:39:13;;;;;;;25.70;14.80;;;;;;;;;;5051864;28;20009;-65
2023/08/20 04:41:38;;;;;;;23.63;14.93;;;;;;;;;;5050073;28;20120;-65
2023/08/20 04:44:03;;;;;;;22.60;14.40;;;;;;;;;;5051670;28;20025;-65
2023/08/20 04:46:28;;;;;;;22.17;11.57;;;;;;;;;;5049372;28;20436;-64
2023/08/20 04:48:53;;;;;;;21.90;14.13;;;;;;;;;;5051645;28;20946;-64
2023/08/20 04:51:19;;;;;;;15.40;12.60;;;;;;;;;;5049980;28;20044;-64
2023/08/20 04:53:44;;;;;;;20.10;12.00;;;;;;;;;;5050783;28;20493;-64
2023/08/20 04:56:10;;;;;;;14.98;11.63;;;;;;;;;;5050019;28;20029;-64
2023/08/20 04:58:35;;;;;;;23.08;13.45;;;;;;;;;;5051212;28;20032;-64
2023/08/20 05:01:00;;;;;;;15.90;13.05;;;;;;;;;;5049697;28;20029;-64
2023/08/20 05:03:25;;;;;;;33.33;17.43;;;;;;;;;;5050987;28;20114;-64
2023/08/20 05:05:51;;;;;;;31.83;17.60;;;;;;;;;;5049175;28;20449;-64
2023/08/20 05:08:16;;;;;;;36.33;19.93;;;;;;;;;;5049039;28;20040;-65
2023/08/20 05:10:41;;;;;;;25.52;18.42;;;;;;;;;;5050030;28;20021;-68
2023/08/20 05:13:06;;;;;;;32.85;20.83;;;;;;;;;;5051184;28;20075;-64
2023/08/20 05:15:31;;;;;;;35.83;19.37;;;;;;;;;;5049154;28;20028;-65
2023/08/20 05:17:57;;;;;;;31.80;19.67;;;;;;;;;;5051045;28;20497;-64
2023/08/20 05:20:22;;;;;;;26.63;17.57;;;;;;;;;;5050217;28;20444;-71
2023/08/20 05:22:47;;;;;;;36.30;17.38;;;;;;;;;;5049140;28;20035;-64
2023/08/20 05:25:12;;;;;;;26.90;16.77;;;;;;;;;;5046256;28;20374;-64
2023/08/20 05:27:37;;;;;;;32.20;21.33;;;;;;;;;;5037055;28;20076;-65
2023/08/20 05:30:03;;;;;;;33.45;19.75;;;;;;;;;;5050675;28;20025;-64
2023/08/20 05:32:28;;;;;;;27.00;17.98;;;;;;;;;;5049134;28;20167;-65
2023/08/20 05:34:53;;;;;;;26.13;15.53;;;;;;;;;;5050756;28;20368;-64
2023/08/20 05:37:18;;;;;;;25.87;16.53;;;;;;;;;;5048611;28;20128;-64
2023/08/20 05:39:44;;;;;;;33.00;19.13;;;;;;;;;;5050763;28;20017;-64
2023/08/20 05:42:09;;;;;;;34.53;16.58;;;;;;;;;;5047867;28;20037;-69
2023/08/20 05:44:34;;;;;;;47.47;21.17;;;;;;;;;;5049967;28;20020;-64
2023/08/20 05:47:00;;;;;;;34.17;18.57;;;;;;;;;;5049087;28;20041;-71
2023/08/20 05:49:26;;;;;;;32.40;17.65;;;;;;;;;;5050186;28;20444;-64
2023/08/20 05:51:51;;;;;;;32.93;21.20;;;;;;;;;;5047725;28;20048;-61
2023/08/20 05:54:16;;;;;;;26.57;17.70;;;;;;;;;;5048948;28;20174;-62
2023/08/20 05:56:41;;;;;;;27.43;18.30;;;;;;;;;;5048672;28;20451;-62
2023/08/20 05:59:06;;;;;;;29.37;20.03;;;;;;;;;;5049714;28;20100;-62
2023/08/20 06:01:31;;;;;;;24.60;17.47;;;;;;;;;;5048534;28;20045;-62
2023/08/20 06:03:57;;;;;;;41.88;19.77;;;;;;;;;;5050484;28;20460;-62
2023/08/20 06:06:22;;;;;;;23.40;18.00;;;;;;;;;;5043842;28;20528;-61
2023/08/20 06:08:47;;;;;;;21.67;17.52;;;;;;;;;;5048148;28;20101;-62
2023/08/20 06:11:12;;;;;;;23.90;16.60;;;;;;;;;;5047970;28;20053;-61
2023/08/20 06:13:37;;;;;;;31.02;20.17;;;;;;;;;;5048406;28;20032;-62
2023/08/20 06:16:03;;;;;;;30.80;17.97;;;;;;;;;;5048465;28;20108;-61
2023/08/20 06:18:28;;;;;;;27.58;17.42;;;;;;;;;;5051943;28;20044;-61
2023/08/20 06:20:53;;;;;;;26.60;17.65;;;;;;;;;;5051740;28;20029;-61
2023/08/20 06:23:18;;;;;;;33.87;19.33;;;;;;;;;;5052805;28;20079;-62
2023/08/20 06:25:43;;;;;;;31.13;19.90;;;;;;;;;;5052158;28;20021;-66
2023/08/20 06:28:09;;;;;;;23.85;16.40;;;;;;;;;;5053258;28;20087;-61
2023/08/20 06:30:34;;;;;;;24.98;16.90;;;;;;;;;;5051343;28;20038;-63
2023/08/20 06:32:59;;;;;;;27.80;17.63;;;;;;;;;;5053908;28;20013;-61
2023/08/20 06:35:25;;;;;;;25.17;18.20;;;;;;;;;;5052686;28;20806;-61
2023/08/20 06:37:50;;;;;;;23.33;16.27;;;;;;;;;;5051439;28;20067;-62
2023/08/20 06:40:15;;;;;;;21.30;14.80;;;;;;;;;;5053629;28;20072;-61
2023/08/20 06:42:40;;;;;;;20.55;13.80;;;;;;;;;;5052011;28;20466;-62
2023/08/20 06:45:06;;;;;;;26.20;16.45;;;;;;;;;;5052126;28;20029;-61
2023/08/20 06:47:31;;;;;;;21.65;16.80;;;;;;;;;;5048659;28;20041;-60
2023/08/20 06:49:56;;;;;;;23.75;16.20;;;;;;;;;;5052526;28;20063;-61
2023/08/20 06:52:21;;;;;;;17.43;15.57;;;;;;;;;;5050144;28;20099;-61
2023/08/20 06:54:46;;;;;;;29.03;17.10;;;;;;;;;;5051064;28;20025;-61
2023/08/20 06:57:12;;;;;;;15.50;13.82;;;;;;;;;;5051740;28;20459;-62
2023/08/20 06:59:37;;;;;;;17.42;15.40;;;;;;;;;;5051299;28;20019;-61
2023/08/20 07:02:03;;;;;;;23.73;16.23;;;;;;;;;;5051680;28;20395;-61
2023/08/20 07:04:28;;;;;;;21.70;15.23;;;;;;;;;;5053005;28;20025;-62
2023/08/20 07:06:53;;;;;;;19.48;13.98;;;;;;;;;;5050065;28;20044;-61
2023/08/20 07:09:18;;;;;;;22.48;16.70;;;;;;;;;;5053063;28;20055;-61
2023/08/20 07:11:44;;;;;;;24.70;17.63;;;;;;;;;;5051307;28;20037;-61
2023/08/20 07:14:09;;;;;;;31.47;16.10;;;;;;;;;;5051772;28;20052;-61
2023/08/20 07:16:34;;;;;;;20.55;13.68;;;;;;;;;;5051637;28;20033;-61
2023/08/20 07:18:59;;;;;;;33.35;16.25;;;;;;;;;;5052548;28;20407;-61
2023/08/20 07:21:24;;;;;;;24.70;14.77;;;;;;;;;;5050137;28;20044;-61
2023/08/20 07:23:49;;;;;;;26.33;16.77;;;;;;;;;;5052434;28;20105;-61
2023/08/20 07:26:15;;;;;;;21.60;15.37;;;;;;;;;;5050647;28;20464;-61
2023/08/20 07:28:59;;;;;;;15.98;14.27;;;;;;;;;;5051076;28;20607;-61
2023/08/20 07:31:25;;;;;;;29.05;17.77;;;;;;;;;;5049235;28;20033;-61
2023/08/20 07:33:51;;;;;;;12.18;10.82;;;;;;;;;;5052590;28;20028;-73
2023/08/20 07:36:17;;;;;;;22.30;11.85;;;;;;;;;;5049162;28;20033;-61
2023/08/20 07:38:42;;;;;;;16.98;11.90;;;;;;;;;;5052545;28;20017;-61
2023/08/20 07:41:11;;;;;;;23.50;10.63;;;;;;;;;;5049792;28;20032;-61
2023/08/20 07:43:37;;;;;;;15.48;8.77;;;;;;;;;;5050113;28;20534;-61
2023/08/20 07:46:02;;;;;;;18.77;9.25;;;;;;;;;;5050882;28;20129;-61
2023/08/20 07:48:28;;;;;;;12.90;7.72;;;;;;;;;;5052176;28;20244;-61
2023/08/20 07:50:53;;;;;;;12.80;8.60;;;;;;;;;;5049499;28;20037;-61
2023/08/20 07:53:18;;;;;;;12.80;7.68;;;;;;;;;;5051784;28;20025;-61
2023/08/20 07:55:44;;;;;;;10.43;5.88;;;;;;;;;;5049897;28;20024;-61
2023/08/20 07:58:09;;;;;;;21.08;5.82;;;;;;;;;;5047139;28;20032;-61
2023/08/20 08:00:35;;;;;;;10.87;5.43;;;;;;;;;;5049793;28;20025;-62
2023/08/20 08:03:00;;;;;;;10.43;5.72;;;;;;;;;;5052210;28;20419;-61
2023/08/20 08:05:25;;;;;;;10.88;5.22;;;;;;;;;;5051587;28;20472;-61
2023/08/20 08:07:50;;;;;;;12.77;5.10;;;;;;;;;;5049479;28;20041;-73
2023/08/20 08:10:15;;;;;;;9.35;4.30;;;;;;;;;;5050410;28;20032;-61
2023/08/20 08:12:40;;;;;;;6.65;3.72;;;;;;;;;;5048699;28;20509;-61
2023/08/20 08:15:06;;;;;;;10.23;5.63;;;;;;;;;;5052039;28;20035;-67
2023/08/20 08:17:31;;;;;;;13.65;6.38;;;;;;;;;;5049087;28;20090;-61
2023/08/20 08:19:57;;;;;;;9.33;5.03;;;;;;;;;;5044699;28;20065;-60
2023/08/20 08:22:22;;;;;;;11.02;5.03;;;;;;;;;;5030245;28;20037;-61
2023/08/20 08:24:47;;;;;;;13.17;4.67;;;;;;;;;;5042041;28;20195;-61
2023/08/20 08:27:13;;;;;;;6.67;4.27;;;;;;;;;;5049735;28;20492;-60
2023/08/20 08:29:38;;;;;;;11.07;4.43;;;;;;;;;;5050341;28;20017;-60
2023/08/20 08:32:03;;;;;;;9.90;7.33;;;;;;;;;;5049918;28;20091;-60
2023/08/20 08:34:28;;;;;;;11.33;7.30;;;;;;;;;;5050021;28;20028;-61
2023/08/20 08:36:53;;;;;;;9.48;6.70;;;;;;;;;;5050197;28;20853;-61
2023/08/20 08:39:18;;;;;;;10.32;6.28;;;;;;;;;;5050491;28;20025;-61
2023/08/20 08:41:46;;;;;;;16.57;5.33;;;;;;;;;;5047664;28;20041;-61
2023/08/20 08:44:11;;;;;;;16.48;6.38;;;;;;;;;;5061536;28;20059;-61
2023/08/20 08:46:38;;;;;;;8.65;5.97;;;;;;;;;;5048967;28;20048;-61
2023/08/20 08:49:03;;;;;;;10.85;5.63;;;;;;;;;;5050560;28;20075;-61
2023/08/20 08:51:30;;;;;;;9.10;5.93;;;;;;;;;;5049805;28;20462;-72
2023/08/20 08:53:55;;;;;;;10.20;4.97;;;;;;;;;;5050673;28;20108;-60
2023/08/20 08:56:20;;;;;;;13.75;6.45;;;;;;;;;;5048850;28;20577;-61
2023/08/20 08:58:45;;;;;;;12.88;6.15;;;;;;;;;;5050338;28;20023;-61
2023/08/20 09:01:11;;;;;;;12.73;7.93;;;;;;;;;;5049538;28;20634;-61
2023/08/20 09:03:36;;;;;;;14.53;8.07;;;;;;;;;;5050373;28;20032;-61
2023/08/20 09:06:03;;;;;;;12.23;8.43;;;;;;;;;;5049563;28;20036;-61
2023/08/20 09:08:29;;;;;;;12.00;6.38;;;;;;;;;;5049604;28;20028;-61
2023/08/20 09:10:55;;;;;;;12.68;5.80;;;;;;;;;;5047813;28;20041;-61
2023/08/20 09:13:33;;;;;;;21.42;11.50;;;;;;;;;;5050075;28;20155;-61
2023/08/20 09:15:58;;;;;;;12.18;8.45;;;;;;;;;;5049196;28;20033;-62
2023/08/20 09:18:23;;;;;;;12.23;9.43;;;;;;;;;;5049787;28;20092;-61
2023/08/20 09:20:51;;;;;;;15.00;7.77;;;;;;;;;;5049127;28;20376;-61
2023/08/20 09:23:16;;;;;;;12.13;9.00;;;;;;;;;;5049658;28;20442;-61
2023/08/20 09:25:42;;;;;;;16.33;8.47;;;;;;;;;;5048644;28;20092;-60
2023/08/20 09:28:07;;;;;;;11.82;7.30;;;;;;;;;;5049799;28;20490;-61
2023/08/20 09:30:32;;;;;;;9.95;7.10;;;;;;;;;;5048519;28;20606;-61
2023/08/20 09:33:05;;;;;;;9.90;7.00;;;;;;;;;;5050389;28;20020;-61
2023/08/20 09:35:30;;;;;;;9.95;7.47;;;;;;;;;;5048655;28;20029;-61
2023/08/20 09:38:03;;;;;;;15.63;8.13;;;;;;;;;;5049076;28;20437;-61
2023/08/20 09:40:28;;;;;;;14.13;6.38;;;;;;;;;;5044323;28;20055;-60
2023/08/20 09:42:54;;;;;;;10.77;4.67;;;;;;;;;;5048309;28;20044;-61
2023/08/20 09:45:19;;;;;;;9.35;5.60;;;;;;;;;;5049795;28;20443;-61
2023/08/20 09:47:46;;;;;;;8.45;4.93;;;;;;;;;;5048389;28;20040;-61
2023/08/20 09:50:12;;;;;;;12.45;6.22;;;;;;;;;;5049892;28;20025;-61
2023/08/20 09:52:39;;;;;;;16.33;6.50;;;;;;;;;;5047864;28;20453;-61
2023/08/20 09:55:08;;;;;;;12.10;5.78;;;;;;;;;;5049216;28;20037;-73
2023/08/20 09:57:35;;;;;;;9.43;5.20;;;;;;;;;;5048668;28;20036;-63
2023/08/20 10:00:00;;;;;;;11.70;5.45;;;;;;;;;;5049558;28;20028;-61
2023/08/20 10:02:26;;;;;;;13.80;6.45;;;;;;;;;;5048246;28;20025;-61
2023/08/20 10:04:51;;;;;;;7.32;4.10;;;;;;;;;;5050113;28;20020;-61
2023/08/20 10:07:17;;;;;;;10.82;5.22;;;;;;;;;;5048272;28;20059;-62
2023/08/20 10:09:45;;;;;;;7.95;4.05;;;;;;;;;;5049229;28;20380;-61
2023/08/20 10:12:11;;;;;;;11.07;4.80;;;;;;;;;;5047370;28;20037;-62
2023/08/20 10:14:36;;;;;;;22.73;5.00;;;;;;;;;;5049499;28;20032;-72
2023/08/20 10:17:06;;;;;;;10.90;3.80;;;;;;;;;;5048660;28;20025;-61
2023/08/20 10:19:31;;;;;;;4.63;3.05;;;;;;;;;;5048918;28;20095;-61
2023/08/20 10:21:56;;;;;;;6.07;3.43;;;;;;;;;;5047657;28;20033;-62
2023/08/20 10:24:23;;;;;;;9.00;3.83;;;;;;;;;;5048663;28;20032;-61
2023/08/20 10:26:48;;;;;;;10.33;3.23;;;;;;;;;;5047027;28;20037;-61
2023/08/20 10:29:32;;;;;;;13.13;3.75;;;;;;;;;;5049545;28;20021;-61
2023/08/20 10:31:57;;;;;;;8.68;2.70;;;;;;;;;;5048597;28;20087;-61
2023/08/20 10:34:31;;;;;;;8.70;3.60;;;;;;;;;;5049496;28;20017;-62
2023/08/20 10:36:56;;;;;;;6.00;3.22;;;;;;;;;;5048266;28;20491;-71
2023/08/20 10:39:23;;;;;;;8.20;2.77;;;;;;;;;;5048983;28;20025;-61
2023/08/20 10:41:48;;;;;;;8.63;3.20;;;;;;;;;;5048211;28;20029;-62
2023/08/20 10:44:14;;;;;;;4.83;2.33;;;;;;;;;;5049688;28;20100;-61
2023/08/20 10:46:49;;;;;;;6.03;2.28;;;;;;;;;;5048040;28;20481;-61
2023/08/20 10:49:16;;;;;;;5.57;2.60;;;;;;;;;;5049496;28;20108;-61
2023/08/20 10:51:43;;;;;;;16.38;4.00;;;;;;;;;;5048154;28;20051;-61
2023/08/20 10:54:09;;;;;;;7.38;3.08;;;;;;;;;;5049425;28;20531;-61
2023/08/20 10:56:44;;;;;;;5.85;2.22;;;;;;;;;;5047634;28;20064;-61
2023/08/20 10:59:30;;;;;;;7.88;2.58;;;;;;;;;;5049380;28;20468;-61
2023/08/20 11:01:56;;;;;;;10.50;4.35;;;;;;;;;;5046064;28;20037;-61
2023/08/20 11:04:23;;;;;;;15.80;2.15;;;;;;;;;;5051291;28;20429;-61
2023/08/20 11:06:58;;;;;;;13.55;3.20;;;;;;;;;;5051562;28;20056;-61
2023/08/20 11:09:24;;;;;;;4.90;2.88;;;;;;;;;;5052356;28;20501;-61
2023/08/20 11:11:50;;;;;;;6.93;1.90;;;;;;;;;;5051816;28;20037;-61
2023/08/20 11:14:15;;;;;;;9.73;2.30;;;;;;;;;;5052839;28;20021;-61
2023/08/20 11:16:41;;;;;;;5.45;2.30;;;;;;;;;;5051423;28;20029;-61
2023/08/20 11:19:09;;;;;;;3.30;1.83;;;;;;;;;;5052927;28;20045;-61
2023/08/20 11:21:35;;;;;;;4.70;1.10;;;;;;;;;;5051075;28;20029;-61
2023/08/20 11:24:01;;;;;;;9.02;2.63;;;;;;;;;;5052281;28;20043;-64
2023/08/20 11:26:26;;;;;;;6.07;1.75;;;;;;;;;;5051336;28;20116;-61
2023/08/20 11:28:51;;;;;;;2.57;1.13;;;;;;;;;;5052554;28;20543;-61
2023/08/20 11:31:16;;;;;;;2.00;1.10;;;;;;;;;;5050466;28;20443;-61
2023/08/20 11:33:41;;;;;;;5.35;1.95;;;;;;;;;;5052533;28;20036;-61
2023/08/20 11:36:07;;;;;;;2.63;1.30;;;;;;;;;;5046273;28;20465;-61
2023/08/20 11:38:32;;;;;;;2.38;1.80;;;;;;;;;;5042513;28;20977;-61
2023/08/20 11:40:59;;;;;;;7.03;1.40;;;;;;;;;;5050714;28;20041;-61
2023/08/20 11:43:24;;;;;;;5.28;1.70;;;;;;;;;;5051921;28;20488;-61
2023/08/20 11:45:49;;;;;;;4.63;1.40;;;;;;;;;;5050889;28;20041;-61
2023/08/20 11:48:15;;;;;;;5.60;1.20;;;;;;;;;;5050133;28;20021;-61
2023/08/20 11:50:41;;;;;;;5.97;1.40;;;;;;;;;;5049582;28;20020;-69
2023/08/20 11:53:06;;;;;;;2.17;1.50;;;;;;;;;;5051946;28;20009;-61
2023/08/20 11:55:31;;;;;;;4.60;1.40;;;;;;;;;;5049769;28;20456;-61
2023/08/20 11:57:57;;;;;;;2.53;1.10;;;;;;;;;;5052498;28;20468;-61
2023/08/20 12:00:29;;;;;;;9.65;1.88;;;;;;;;;;5050943;28;20017;-61
2023/08/20 12:02:56;;;;;;;4.97;1.38;;;;;;;;;;5049538;28;20170;-61
2023/08/20 12:05:25;;;;;;;5.53;2.03;;;;;;;;;;5051410;28;20037;-61
2023/08/20 12:07:54;;;;;;;3.17;0.80;;;;;;;;;;5050830;28;20033;-61
2023/08/20 12:10:23;;;;;;;2.70;0.98;;;;;;;;;;5052003;28;20590;-61
2023/08/20 12:12:49;;;;;;;1.05;0.90;;;;;;;;;;5049775;28;20032;-61
2023/08/20 12:15:14;;;;;;;5.35;1.65;;;;;;;;;;5052443;28;20411;-61
2023/08/20 12:17:39;;;;;;;3.83;1.58;;;;;;;;;;5049712;28;20763;-61
2023/08/20 12:20:12;;;;;;;2.17;0.90;;;;;;;;;;5052126;28;20051;-62
2023/08/20 12:22:37;;;;;;;2.05;1.00;;;;;;;;;;5050083;28;20040;-61
2023/08/20 12:25:02;;;;;;;2.63;1.07;;;;;;;;;;5051461;28;20025;-61
2023/08/20 12:27:28;;;;;;;4.53;1.23;;;;;;;;;;5049004;28;20041;-61
2023/08/20 12:29:53;;;;;;;3.67;1.38;;;;;;;;;;5051996;28;20436;-61
2023/08/20 12:32:18;;;;;;;1.50;0.93;;;;;;;;;;5049578;28;20091;-62
2023/08/20 12:34:43;;;;;;;3.33;1.50;;;;;;;;;;5051488;28;20021;-62
2023/08/20 12:37:09;;;;;;;1.27;0.75;;;;;;;;;;5049035;28;20037;-61
2023/08/20 12:39:34;;;;;;;2.93;0.90;;;;;;;;;;5051567;28;20045;-61
2023/08/20 12:41:59;;;;;;;1.38;0.98;;;;;;;;;;5050302;28;20037;-61
2023/08/20 12:44:24;;;;;;;4.13;1.20;;;;;;;;;;5051749;28;20139;-61
2023/08/20 12:46:49;;;;;;;6.07;1.33;;;;;;;;;;5049296;28;20511;-61
2023/08/20 12:49:15;;;;;;;6.50;1.60;;;;;;;;;;5051798;28;20431;-61
2023/08/20 12:51:40;;;;;;;5.87;2.03;;;;;;;;;;5050480;28;20033;-61
2023/08/20 12:54:05;;;;;;;3.95;1.20;;;;;;;;;;5051287;28;20368;-61
2023/08/20 12:56:30;;;;;;;1.93;0.80;;;;;;;;;;5049825;28;20083;-61
2023/08/20 12:58:55;;;;;;;1.40;1.13;;;;;;;;;;5051898;28;20409;-61
2023/08/20 13:01:20;;;;;;;3.97;1.65;;;;;;;;;;5049557;28;20447;-61
2023/08/20 13:03:46;;;;;;;1.93;1.00;;;;;;;;;;5051892;28;20017;-61
2023/08/20 13:06:11;;;;;;;0.70;0.70;;;;;;;;;;5050040;28;20037;-61
2023/08/20 13:08:36;;;;;;;2.22;0.90;;;;;;;;;;5050658;28;20088;-62
2023/08/20 13:11:03;;;;;;;2.63;1.40;;;;;;;;;;5050255;28;20082;-61
2023/08/20 13:13:31;;;;;;;4.78;1.38;;;;;;;;;;5050984;28;20032;-61
2023/08/20 13:15:57;;;;;;;4.93;1.40;;;;;;;;;;5049433;28;20506;-61
2023/08/20 13:18:24;;;;;;;5.53;0.93;;;;;;;;;;5050587;28;20066;-61
2023/08/20 13:20:50;;;;;;;6.05;1.15;;;;;;;;;;5050212;28;20447;-61
2023/08/20 13:23:15;;;;;;;3.65;2.33;;;;;;;;;;5050564;28;20013;-64
2023/08/20 13:25:40;;;;;;;4.87;1.83;;;;;;;;;;5049400;28;20055;-61
2023/08/20 13:28:05;;;;;;;2.17;1.07;;;;;;;;;;5050992;28;20028;-61
2023/08/20 13:30:33;;;;;;;7.37;1.17;;;;;;;;;;5048776;28;20024;-61
2023/08/20 13:32:58;;;;;;;1.42;0.82;;;;;;;;;;5051067;28;20423;-61
2023/08/20 13:35:23;;;;;;;2.67;1.30;;;;;;;;;;5050883;28;20023;-61
2023/08/20 13:37:48;;;;;;;2.85;0.95;;;;;;;;;;5049101;28;20504;-61
2023/08/20 13:40:14;;;;;;;5.72;1.80;;;;;;;;;;5050680;28;20108;-61
2023/08/20 13:42:39;;;;;;;1.93;0.77;;;;;;;;;;5049150;28;20488;-69
2023/08/20 13:45:04;;;;;;;4.20;1.20;;;;;;;;;;5050457;28;20028;-62
2023/08/20 13:47:29;;;;;;;4.47;1.00;;;;;;;;;;5048776;28;20444;-61
2023/08/20 13:49:55;;;;;;;2.60;1.10;;;;;;;;;;5050673;28;20104;-61
2023/08/20 13:52:20;;;;;;;9.37;0.93;;;;;;;;;;5048545;28;20086;-61
2023/08/20 13:54:45;;;;;;;1.67;0.73;;;;;;;;;;5050439;28;20443;-61
2023/08/20 13:57:10;;;;;;;1.50;1.03;;;;;;;;;;5049335;28;20143;-61
2023/08/20 13:59:35;;;;;;;2.33;1.02;;;;;;;;;;5065302;28;20432;-61
2023/08/20 14:02:01;;;;;;;1.40;1.08;;;;;;;;;;5049242;28;20455;-61
2023/08/20 14:04:26;;;;;;;2.90;1.30;;;;;;;;;;5050293;28;20021;-61
2023/08/20 14:06:51;;;;;;;5.33;1.47;;;;;;;;;;5048777;28;20040;-61
2023/08/20 14:09:19;;;;;;;2.17;0.87;;;;;;;;;;5050132;28;20028;-61
2023/08/20 14:11:44;;;;;;;;;;;;;;;;;;5049541;28;20094;-62
2023/08/20 14:14:09;;;;;;;5.80;1.40;;;;;;;;;;5050184;28;20224;-61
2023/08/20 14:16:35;;;;;;;4.17;1.67;;;;;;;;;;5048722;28;20037;-61
2023/08/20 14:19:00;;;;;;;5.47;1.80;;;;;;;;;;5050196;28;20037;-61
2023/08/20 14:21:25;;;;;;;2.13;1.10;;;;;;;;;;5048666;28;20495;-61
2023/08/20 14:23:50;;;;;;;4.53;1.13;;;;;;;;;;5050331;28;20423;-61